KBAB/BAB METAR and TAF weather

Enter ICAO airport designator
Station Type Date Time Source
KBAB METAR 2020/02/26 09:56 UTC NOAA

KBAB 260956Z AUTO 09005KT 10SM CLR 11/05 A3028 RMK AO2 SLP257 T01080045 $


Station Type Date Time Source
KBAB Decoded METAR 2020/02/26 09:56 UTC NOAA

Marysville, Beale Air Force Base, CA, United States (KBAB) 39-08N 121-26W
Feb 26, 2020 - 04:56 AM EST / 2020.02.26 0956 UTC
Wind: from the E (090 degrees) at 6 MPH (5 KT):0
Visibility: 10 mile(s):0
Sky conditions: clear
Temperature: 51.4 F (10.8 C)
Dew Point: 40.1 F (4.5 C)
Relative Humidity: 65%
Pressure (altimeter): 30.28 in. Hg (1025 hPa)
ob: KBAB 260956Z AUTO 09005KT 10SM CLR 11/05 A3028 RMK AO2 SLP257 T01080045
cycle: 10

Station Type Date Time Source
KBAB TAF 2020/02/26 03:12 UTC NOAA

TAF TAF KBAB 260307Z 2603/2709 VRB06KT 9999 FEW240 QNH3020INS TX24/2622Z TN07/2613Z

Example: see airport list